Time;durP1;ratioP1;P1;durP2;ratioP2;P2;SDS_P1;SDS_P2;PMS_P1;PMS_P2;Temp;Humidity;BMP_temperature;BMP_pressure;BME280_temperature;BME280_humidity;BME280_pressure;Samples;Min_cycle;Max_cycle;Signal;HPM_P1;HPM_P2
2023/08/14 00:01:44;;;;;;;3.33;3.13;;;20.20;95.70;;;;;;5144388;28;20236;-44
2023/08/14 00:04:15;;;;;;;5.00;3.10;;;20.10;96.60;;;;;;5134045;28;20178;-44
2023/08/14 00:06:45;;;;;;;3.33;3.03;;;20.00;97.30;;;;;;5126442;28;20665;-46
2023/08/14 00:09:16;;;;;;;6.33;3.33;;;19.90;98.20;;;;;;5143996;28;20178;-45
2023/08/14 00:11:47;;;;;;;6.07;4.00;;;19.90;99.10;;;;;;5143065;28;20638;-44
2023/08/14 00:14:18;;;;;;;4.03;3.30;;;19.90;99.90;;;;;;5144212;28;20198;-44
2023/08/14 00:16:48;;;;;;;4.77;3.47;;;19.80;99.90;;;;;;5132523;28;20663;-45
2023/08/14 00:19:19;;;;;;;4.10;3.70;;;19.80;99.90;;;;;;5141853;28;20627;-44
2023/08/14 00:21:50;;;;;;;15.53;4.37;;;19.70;99.90;;;;;;5142261;28;20292;-44
2023/08/14 00:24:21;;;;;;;7.17;3.03;;;19.70;99.90;;;;;;5140970;28;20194;-44
2023/08/14 00:26:51;;;;;;;4.60;3.80;;;19.70;99.90;;;;;;5147281;28;20213;-44
2023/08/14 00:29:22;;;;;;;4.37;3.97;;;19.70;99.90;;;;;;5130255;28;20213;-45
2023/08/14 00:31:53;;;;;;;5.10;3.90;;;19.60;99.90;;;;;;5151087;28;20209;-46
2023/08/14 00:34:24;;;;;;;10.77;4.77;;;19.60;99.90;;;;;;5151804;28;20208;-44
2023/08/14 00:36:54;;;;;;;7.47;3.60;;;19.60;99.90;;;;;;5134938;28;20590;-44
2023/08/14 00:39:25;;;;;;;6.83;3.83;;;19.50;99.90;;;;;;5143532;28;20182;-45
2023/08/14 00:41:56;;;;;;;4.63;3.23;;;19.50;99.90;;;;;;5148263;28;20562;-45
2023/08/14 00:44:28;;;;;;;5.73;3.87;;;19.50;99.90;;;;;;5148957;28;20185;-45
2023/08/14 00:46:59;;;;;;;6.47;3.57;;;19.40;99.90;;;;;;5149347;28;20197;-44
2023/08/14 00:49:30;;;;;;;6.63;3.90;;;19.40;99.90;;;;;;5129731;28;20441;-44
2023/08/14 00:52:01;;;;;;;4.53;3.57;;;19.40;99.90;;;;;;5147570;28;20472;-45
2023/08/14 00:54:32;;;;;;;3.80;3.50;;;19.40;99.90;;;;;;5146569;28;20202;-45
2023/08/14 00:57:03;;;;;;;6.57;3.50;;;19.50;99.90;;;;;;5125939;28;20495;-45
2023/08/14 00:59:34;;;;;;;3.70;3.47;;;19.50;99.90;;;;;;5148745;28;20186;-44
2023/08/14 01:02:06;;;;;;;6.23;4.50;;;19.50;99.90;;;;;;5133863;28;20453;-46
2023/08/14 01:04:36;;;;;;;5.60;4.10;;;19.40;99.90;;;;;;5149385;28;20443;-45
2023/08/14 01:07:07;;;;;;;10.40;4.00;;;19.40;99.90;;;;;;5124708;28;20432;-46
2023/08/14 01:09:38;;;;;;;3.50;3.20;;;19.40;99.90;;;;;;5146057;28;20529;-45
2023/08/14 01:12:54;;;;;;;4.00;3.63;;;19.40;99.90;;;;;;5126652;28;20206;-45
2023/08/14 01:15:38;;;;;;;6.20;4.20;;;19.30;99.90;;;;;;5132710;28;20216;-44
2023/08/14 01:18:12;;;;;;;3.30;3.10;;;19.30;99.90;;;;;;5131261;28;20440;-46
2023/08/14 01:20:58;;;;;;;4.27;2.80;;;19.30;99.90;;;;;;5148690;28;20469;-44
2023/08/14 01:23:40;;;;;;;7.33;3.67;;;19.30;99.90;;;;;;5145071;28;20485;-46
2023/08/14 01:26:11;;;;;;;8.37;4.57;;;19.20;99.90;;;;;;5149405;28;20425;-45
2023/08/14 01:28:42;;;;;;;3.67;3.37;;;19.10;99.90;;;;;;5147429;28;20433;-45
2023/08/14 01:31:13;;;;;;;5.47;4.40;;;19.10;99.90;;;;;;5145005;28;20543;-45
2023/08/14 01:33:44;;;;;;;3.90;3.60;;;19.10;99.90;;;;;;5145955;28;20456;-45
2023/08/14 01:36:30;;;;;;;3.40;3.20;;;19.10;99.90;;;;;;5128587;28;20543;-44
2023/08/14 01:39:10;;;;;;;9.47;4.17;;;19.10;99.90;;;;;;5128873;28;20233;-45
2023/08/14 01:42:12;;;;;;;5.03;4.20;;;19.10;99.90;;;;;;5142826;28;21142;-44
2023/08/14 01:44:47;;;;;;;8.10;3.70;;;19.00;99.90;;;;;;5143453;28;20835;-45
2023/08/14 01:47:20;;;;;;;5.80;4.47;;;19.00;99.90;;;;;;5133596;28;20495;-45
2023/08/14 01:49:52;;;;;;;4.10;3.43;;;19.00;99.90;;;;;;5135645;28;20447;-46
2023/08/14 01:52:23;;;;;;;3.90;3.60;;;19.00;99.90;;;;;;5131753;28;20515;-45
2023/08/14 01:55:00;;;;;;;3.63;3.40;;;19.00;99.90;;;;;;5146048;28;20463;-47
2023/08/14 01:57:32;;;;;;;4.47;4.00;;;19.00;99.90;;;;;;5147630;28;20497;-45
2023/08/14 02:00:07;;;;;;;12.80;4.30;;;18.90;99.90;;;;;;5145878;28;20437;-45
2023/08/14 02:02:38;;;;;;;6.40;4.20;;;18.90;99.90;;;;;;5145802;28;20499;-44
2023/08/14 02:05:09;;;;;;;3.30;3.10;;;18.90;99.90;;;;;;5143466;28;20441;-46
2023/08/14 02:07:40;;;;;;;4.73;4.33;;;18.80;99.90;;;;;;5147106;28;20182;-45
2023/08/14 02:10:10;;;;;;;5.70;3.90;;;18.90;99.90;;;;;;5129581;28;20213;-45
2023/08/14 02:12:41;;;;;;;3.90;3.13;;;18.80;99.90;;;;;;5142603;28;20587;-45
2023/08/14 02:15:12;;;;;;;3.53;3.33;;;18.80;99.90;;;;;;5146882;28;20205;-44
2023/08/14 02:17:43;;;;;;;3.03;2.77;;;18.80;99.90;;;;;;5125956;28;20219;-44
2023/08/14 02:20:13;;;;;;;3.03;2.80;;;18.80;99.90;;;;;;5132246;28;20573;-45
2023/08/14 02:22:44;;;;;;;3.30;3.10;;;18.80;99.90;;;;;;5133043;28;20249;-45
2023/08/14 02:25:15;;;;;;;3.77;3.30;;;18.70;99.90;;;;;;5128678;28;20268;-46
2023/08/14 02:27:45;;;;;;;4.17;3.57;;;18.70;99.90;;;;;;5148865;28;20181;-45
2023/08/14 02:30:16;;;;;;;16.93;3.87;;;18.70;99.90;;;;;;5145949;28;20185;-46
2023/08/14 02:32:47;;;;;;;5.20;4.43;;;18.60;99.90;;;;;;5150364;28;20201;-44
2023/08/14 02:35:18;;;;;;;12.10;4.10;;;18.60;99.90;;;;;;5145498;28;20206;-45
2023/08/14 02:37:48;;;;;;;4.20;3.57;;;18.60;99.90;;;;;;5132822;28;20186;-44
2023/08/14 02:40:19;;;;;;;3.20;3.00;;;18.60;99.90;;;;;;5148929;28;20189;-44
2023/08/14 02:42:50;;;;;;;3.67;3.33;;;18.50;99.90;;;;;;5147020;28;20707;-45
2023/08/14 02:45:20;;;;;;;8.17;4.27;;;18.50;99.90;;;;;;5146729;28;20194;-45
2023/08/14 02:47:51;;;;;;;5.10;3.37;;;18.50;99.90;;;;;;5144683;28;20205;-46
2023/08/14 02:50:22;;;;;;;8.33;3.57;;;18.50;99.90;;;;;;5135704;28;20207;-44
2023/08/14 02:52:52;;;;;;;4.07;3.77;;;18.50;99.90;;;;;;5146214;28;20209;-44
2023/08/14 02:55:25;;;;;;;8.73;3.60;;;18.50;99.90;;;;;;5147821;28;20201;-45
2023/08/14 02:57:55;;;;;;;6.60;3.03;;;18.50;99.90;;;;;;5143037;28;20194;-44
2023/08/14 03:00:26;;;;;;;3.53;3.30;;;18.40;99.90;;;;;;5146672;28;21026;-46
2023/08/14 03:02:57;;;;;;;2.70;2.60;;;18.40;99.90;;;;;;5147076;28;20292;-45
2023/08/14 03:05:28;;;;;;;4.17;2.80;;;18.40;99.90;;;;;;5147295;28;20448;-45
2023/08/14 03:07:58;;;;;;;3.07;2.87;;;18.40;99.90;;;;;;5148330;28;20282;-44
2023/08/14 03:10:29;;;;;;;10.30;3.40;;;18.40;99.90;;;;;;5138818;28;20773;-45
2023/08/14 03:13:03;;;;;;;3.80;3.47;;;18.30;99.90;;;;;;5143224;28;20269;-44
2023/08/14 03:15:34;;;;;;;3.20;3.00;;;18.30;99.90;;;;;;5142641;28;20228;-43
2023/08/14 03:18:04;;;;;;;3.53;3.33;;;18.30;99.90;;;;;;5140641;28;20484;-45
2023/08/14 03:20:35;;;;;;;3.83;3.37;;;18.30;99.90;;;;;;5146844;28;20777;-45
2023/08/14 03:23:06;;;;;;;3.57;3.37;;;18.20;99.90;;;;;;5145733;28;20182;-44
2023/08/14 03:25:36;;;;;;;4.40;4.00;;;18.20;99.90;;;;;;5143592;28;20224;-45
2023/08/14 03:28:07;;;;;;;3.40;2.90;;;18.20;99.90;;;;;;5147734;28;20190;-45
2023/08/14 03:30:42;;;;;;;6.90;4.17;;;18.10;99.90;;;;;;5142403;28;20209;-46
2023/08/14 03:33:13;;;;;;;3.70;3.50;;;18.10;99.90;;;;;;5143929;28;20189;-45
2023/08/14 03:35:44;;;;;;;3.07;2.93;;;18.00;99.90;;;;;;5148680;28;20475;-46
2023/08/14 03:38:14;;;;;;;4.23;4.00;;;18.00;99.90;;;;;;5141824;28;20178;-45
2023/08/14 03:40:45;;;;;;;6.40;4.10;;;18.00;99.90;;;;;;5144347;28;20228;-45
2023/08/14 03:43:16;;;;;;;4.33;3.93;;;18.00;99.90;;;;;;5146831;28;20181;-44
2023/08/14 03:45:46;;;;;;;3.80;3.50;;;18.00;99.90;;;;;;5144740;28;20192;-44
2023/08/14 03:48:17;;;;;;;4.03;3.63;;;17.90;99.90;;;;;;5143380;28;20190;-45
2023/08/14 03:50:50;;;;;;;6.87;5.17;;;17.90;99.90;;;;;;5146870;28;20201;-45
2023/08/14 03:53:21;;;;;;;4.20;3.80;;;17.90;99.90;;;;;;5148015;28;20228;-45
2023/08/14 03:55:51;;;;;;;4.53;4.00;;;17.90;99.90;;;;;;5138293;28;20468;-45
2023/08/14 03:58:22;;;;;;;4.17;3.77;;;17.90;99.90;;;;;;5128557;28;20656;-46
2023/08/14 04:00:53;;;;;;;6.77;4.40;;;17.90;99.90;;;;;;5132846;28;20198;-46
2023/08/14 04:03:24;;;;;;;3.87;3.67;;;17.80;99.90;;;;;;5145083;28;20553;-45
2023/08/14 04:05:58;;;;;;;3.70;3.30;;;17.80;99.90;;;;;;5122814;28;20307;-46
2023/08/14 04:08:28;;;;;;;3.60;3.27;;;17.80;99.90;;;;;;5147837;28;20182;-46
2023/08/14 04:10:59;;;;;;;3.97;3.77;;;17.80;99.90;;;;;;5135002;28;21007;-46
2023/08/14 04:13:30;;;;;;;4.30;2.93;;;17.90;99.90;;;;;;5149093;28;20189;-45
2023/08/14 04:16:03;;;;;;;5.07;3.67;;;17.90;99.90;;;;;;5146862;28;20182;-54
2023/08/14 04:18:34;;;;;;;4.33;4.00;;;17.90;99.90;;;;;;5147225;28;20272;-46
2023/08/14 04:21:05;;;;;;;4.10;3.47;;;17.90;99.90;;;;;;5129541;28;20535;-45
2023/08/14 04:23:36;;;;;;;4.77;3.10;;;17.90;99.90;;;;;;5146335;28;20206;-46
2023/08/14 04:26:07;;;;;;;5.53;3.70;;;18.00;99.90;;;;;;5148560;28;20186;-45
2023/08/14 04:28:38;;;;;;;3.33;2.97;;;18.10;99.90;;;;;;5145209;28;20952;-44
2023/08/14 04:31:09;;;;;;;3.73;3.47;;;18.10;99.90;;;;;;5129449;28;20645;-46
2023/08/14 04:33:39;;;;;;;4.83;3.67;;;18.10;99.90;;;;;;5143129;28;20642;-46
2023/08/14 04:36:10;;;;;;;4.00;3.53;;;18.20;99.90;;;;;;5130963;28;20203;-45
2023/08/14 04:38:41;;;;;;;4.30;3.80;;;18.20;99.90;;;;;;5137215;28;20185;-46
2023/08/14 04:41:11;;;;;;;4.23;3.93;;;18.30;99.90;;;;;;5138041;28;20601;-46
2023/08/14 04:43:42;;;;;;;3.33;3.20;;;18.30;99.90;;;;;;5130377;28;20269;-46
2023/08/14 04:46:37;;;;;;;6.20;4.00;;;18.40;99.90;;;;;;5145657;28;20594;-46
2023/08/14 04:49:08;;;;;;;6.77;5.20;;;18.50;99.90;;;;;;5146359;28;20178;-45
2023/08/14 04:51:38;;;;;;;5.83;4.20;;;18.60;99.90;;;;;;5146113;28;20456;-46
2023/08/14 04:54:09;;;;;;;4.07;3.77;;;18.80;99.90;;;;;;5145101;28;20213;-46
2023/08/14 04:56:40;;;;;;;5.30;4.07;;;19.20;99.90;;;;;;5147987;28;20288;-46
2023/08/14 04:59:11;;;;;;;7.23;4.40;;;20.20;99.90;;;;;;5131511;28;20572;-45
2023/08/14 05:01:42;;;;;;;3.57;3.23;;;21.40;99.90;;;;;;5135002;28;20512;-45
2023/08/14 05:04:12;;;;;;;6.50;3.70;;;22.70;99.90;;;;;;5147599;28;20177;-46
2023/08/14 05:06:44;;;;;;;3.23;3.03;;;23.60;99.90;;;;;;5130287;28;20181;-47
2023/08/14 05:09:15;;;;;;;2.93;2.60;;;23.90;99.90;;;;;;5128098;28;20194;-46
2023/08/14 05:11:46;;;;;;;2.77;2.57;;;23.50;99.90;;;;;;5133820;28;20519;-46
2023/08/14 05:14:18;;;;;;;3.83;3.10;;;23.10;99.90;;;;;;5126899;28;20206;-44
2023/08/14 05:16:49;;;;;;;3.63;3.23;;;22.70;99.90;;;;;;5145691;28;20186;-46
2023/08/14 05:19:20;;;;;;;2.90;2.67;;;22.50;99.90;;;;;;5141459;28;20449;-45
2023/08/14 05:21:51;;;;;;;3.03;2.77;;;22.40;99.90;;;;;;5144229;28;20201;-46
2023/08/14 05:24:21;;;;;;;3.60;3.30;;;23.10;99.90;;;;;;5129457;28;20183;-47
2023/08/14 05:26:52;;;;;;;4.53;3.50;;;25.70;99.90;;;;;;5137106;28;20182;-47
2023/08/14 05:29:23;;;;;;;3.43;3.13;;;28.50;99.60;;;;;;5144511;28;20204;-45
2023/08/14 05:31:54;;;;;;;3.20;2.73;;;30.80;84.30;;;;;;5143442;28;20212;-45
2023/08/14 05:34:24;;;;;;;2.53;2.33;;;32.10;67.80;;;;;;5140069;28;20212;-47
2023/08/14 05:36:55;;;;;;;2.90;2.70;;;32.70;61.90;;;;;;5132975;28;21650;-46
2023/08/14 05:39:26;;;;;;;8.03;2.97;;;33.00;57.80;;;;;;5144704;28;20658;-47
2023/08/14 05:41:57;;;;;;;3.13;2.93;;;33.50;53.80;;;;;;5144081;28;20208;-47
2023/08/14 05:44:28;;;;;;;5.13;2.43;;;33.40;52.60;;;;;;5142617;28;20185;-46
2023/08/14 05:46:59;;;;;;;3.13;2.90;;;33.50;51.80;;;;;;5147760;28;20228;-47
2023/08/14 05:49:29;;;;;;;4.67;2.73;;;34.00;50.50;;;;;;5145736;28;20189;-46
2023/08/14 05:52:00;;;;;;;2.80;2.60;;;34.80;48.90;;;;;;5139239;28;20243;-46
2023/08/14 05:54:31;;;;;;;2.80;2.70;;;35.20;48.10;;;;;;5144935;28;20680;-47
2023/08/14 05:57:02;;;;;;;4.53;2.83;;;35.60;46.20;;;;;;5143319;28;20186;-47
2023/08/14 05:59:33;;;;;;;2.83;2.55;;;35.50;45.30;;;;;;5135669;28;20280;-47
2023/08/14 06:02:04;;;;;;;5.65;3.40;;;35.00;46.40;;;;;;5141877;28;20295;-46
2023/08/14 06:04:37;;;;;;;2.22;2.13;;;35.50;45.40;;;;;;5141293;28;20173;-46
2023/08/14 06:07:07;;;;;;;3.83;2.60;;;36.20;44.20;;;;;;5126607;28;20661;-46
2023/08/14 06:09:38;;;;;;;4.07;2.33;;;36.70;42.80;;;;;;5142553;28;20181;-47
2023/08/14 06:12:09;;;;;;;3.65;2.40;;;37.50;41.30;;;;;;5144214;28;20205;-47
2023/08/14 06:14:39;;;;;;;3.15;2.85;;;38.00;40.10;;;;;;5142028;28;20209;-47
2023/08/14 06:17:10;;;;;;;4.70;3.15;;;38.30;39.40;;;;;;5142892;28;20185;-47
2023/08/14 06:19:41;;;;;;;2.60;2.50;;;38.30;38.60;;;;;;5141981;28;20189;-47
2023/08/14 06:22:12;;;;;;;2.60;2.25;;;38.30;38.90;;;;;;5145477;28;20200;-46
2023/08/14 06:24:43;;;;;;;3.90;3.20;;;38.70;38.10;;;;;;5142881;28;20263;-47
2023/08/14 06:27:13;;;;;;;3.63;2.92;;;38.90;37.40;;;;;;5144780;28;20200;-47
2023/08/14 06:29:44;;;;;;;7.68;2.88;;;39.50;36.70;;;;;;5144816;28;20177;-48
2023/08/14 06:32:15;;;;;;;3.63;2.20;;;39.80;36.10;;;;;;5134927;28;20201;-47
2023/08/14 06:34:46;;;;;;;5.07;2.40;;;39.90;35.60;;;;;;5145456;28;20283;-47
2023/08/14 06:37:17;;;;;;;2.35;2.25;;;39.90;35.40;;;;;;5132121;28;20602;-48
2023/08/14 06:39:47;;;;;;;4.70;3.08;;;39.90;35.20;;;;;;5137497;28;20186;-47
2023/08/14 06:42:18;;;;;;;6.05;3.00;;;39.90;35.00;;;;;;5145673;28;20213;-46
2023/08/14 06:44:49;;;;;;;4.97;2.53;;;40.00;35.10;;;;;;5144380;28;20236;-47
2023/08/14 06:47:20;;;;;;;2.78;2.65;;;40.50;34.60;;;;;;5132249;28;20185;-46
2023/08/14 06:49:51;;;;;;;5.47;2.63;;;41.00;33.80;;;;;;5144162;28;20602;-48
2023/08/14 06:52:21;;;;;;;5.30;3.45;;;42.00;32.70;;;;;;5142596;28;20791;-48
2023/08/14 06:54:52;;;;;;;8.57;4.03;;;42.10;32.00;;;;;;5141633;28;20205;-48
2023/08/14 06:57:23;;;;;;;6.30;2.50;;;41.60;31.80;;;;;;5141088;28;20181;-48
2023/08/14 06:59:54;;;;;;;3.13;2.80;;;41.70;32.40;;;;;;5138544;28;20717;-48
2023/08/14 07:02:25;;;;;;;2.80;2.60;;;41.70;32.40;;;;;;5140985;28;20227;-47
2023/08/14 07:04:55;;;;;;;4.07;2.95;;;42.40;31.60;;;;;;5147725;28;20204;-48
2023/08/14 07:07:26;;;;;;;4.88;2.17;;;43.00;30.40;;;;;;5128785;28;20235;-46
2023/08/14 07:09:57;;;;;;;7.32;4.22;;;42.70;30.70;;;;;;5143464;28;20332;-46
2023/08/14 07:12:27;;;;;;;3.53;2.13;;;42.50;30.70;;;;;;5128182;28;20232;-48
2023/08/14 07:15:00;;;;;;;6.15;2.88;;;43.20;29.70;;;;;;5147506;28;20204;-48
2023/08/14 07:17:31;;;;;;;3.00;2.20;;;43.50;29.60;;;;;;5142231;28;20542;-48
2023/08/14 07:20:04;;;;;;;4.10;1.85;;;43.20;29.50;;;;;;5128617;28;20193;-49
2023/08/14 07:22:35;;;;;;;6.50;2.97;;;43.50;29.40;;;;;;5142504;28;20183;-47
2023/08/14 07:25:06;;;;;;;3.88;2.13;;;43.50;29.20;;;;;;5144195;28;20549;-46
2023/08/14 07:27:37;;;;;;;3.20;2.00;;;43.20;29.00;;;;;;5125820;28;20216;-47
2023/08/14 07:30:08;;;;;;;5.90;2.05;;;44.00;28.60;;;;;;5141288;28;20189;-47
2023/08/14 07:32:39;;;;;;;3.45;2.13;;;43.90;27.90;;;;;;5136762;28;20195;-47
2023/08/14 07:35:09;;;;;;;2.92;2.70;;;43.60;28.40;;;;;;5129342;28;20205;-48
2023/08/14 07:37:40;;;;;;;6.80;2.45;;;43.80;28.40;;;;;;5141686;28;20622;-49
2023/08/14 07:40:11;;;;;;;6.05;2.60;;;44.00;28.30;;;;;;5144386;28;20610;-47
2023/08/14 07:42:42;;;;;;;1.80;1.65;;;44.40;28.00;;;;;;5127042;28;20185;-48
2023/08/14 07:45:13;;;;;;;1.77;1.65;;;44.60;27.40;;;;;;5144023;28;20638;-47
2023/08/14 07:47:47;;;;;;;4.05;1.75;;;44.50;27.50;;;;;;5137376;28;20792;-48
2023/08/14 07:50:18;;;;;;;2.88;1.40;;;44.60;27.20;;;;;;5123863;28;20184;-47
2023/08/14 07:52:49;;;;;;;2.13;2.03;;;43.70;27.70;;;;;;5122890;28;20185;-46
2023/08/14 07:55:20;;;;;;;2.83;2.40;;;43.40;28.10;;;;;;5125287;28;20355;-47
2023/08/14 07:57:51;;;;;;;6.07;1.90;;;44.10;28.30;;;;;;5141086;28;20190;-47
2023/08/14 08:00:24;;;;;;;2.05;1.58;;;43.90;27.60;;;;;;5126447;28;20209;-46
2023/08/14 08:02:55;;;;;;;2.63;2.30;;;43.50;27.90;;;;;;5141144;28;20232;-46
2023/08/14 08:05:26;;;;;;;5.38;1.95;;;43.20;28.30;;;;;;5140705;28;20713;-47
2023/08/14 08:07:57;;;;;;;2.38;2.25;;;43.30;27.90;;;;;;5142832;28;20281;-49
2023/08/14 08:10:28;;;;;;;2.10;2.00;;;42.70;27.80;;;;;;5141359;28;20259;-48
2023/08/14 08:12:59;;;;;;;2.30;2.10;;;41.60;28.90;;;;;;5122085;28;20208;-46
2023/08/14 08:15:30;;;;;;;3.35;2.50;;;40.50;30.00;;;;;;5143420;28;20685;-48
2023/08/14 08:18:01;;;;;;;1.67;1.58;;;39.70;30.90;;;;;;5140055;28;20185;-47
2023/08/14 08:20:32;;;;;;;3.50;1.98;;;39.90;29.90;;;;;;5127021;28;20194;-48
2023/08/14 08:23:04;;;;;;;2.38;1.95;;;40.30;29.50;;;;;;5129848;28;20328;-48
2023/08/14 08:25:34;;;;;;;1.80;1.70;;;40.90;29.20;;;;;;5129602;28;20181;-49
2023/08/14 08:28:05;;;;;;;2.25;2.05;;;41.10;28.90;;;;;;5137795;28;20200;-48
2023/08/14 08:30:37;;;;;;;2.47;1.75;;;41.40;29.20;;;;;;5139601;28;20619;-49
2023/08/14 08:33:08;;;;;;;2.35;1.90;;;41.80;28.40;;;;;;5135046;28;20232;-47
2023/08/14 08:35:39;;;;;;;2.35;1.50;;;41.70;27.70;;;;;;5122803;28;20229;-48
2023/08/14 08:38:09;;;;;;;1.75;1.55;;;41.50;27.60;;;;;;5140025;28;20217;-48
2023/08/14 08:40:49;;;;;;;1.60;1.60;;;41.10;28.10;;;;;;5142772;28;20240;-48
2023/08/14 08:43:22;;;;;;;1.98;1.88;;;40.00;29.10;;;;;;5140488;28;20204;-48
2023/08/14 08:45:57;;;;;;;2.67;2.47;;;39.30;30.10;;;;;;5141103;28;21236;-47
2023/08/14 08:48:31;;;;;;;1.38;1.38;;;38.70;31.00;;;;;;5124853;28;20219;-48
2023/08/14 08:51:04;;;;;;;1.77;1.67;;;37.60;31.90;;;;;;5139163;28;20206;-48
2023/08/14 08:53:36;;;;;;;1.92;1.83;;;36.70;31.70;;;;;;5142568;28;20236;-47
2023/08/14 08:56:07;;;;;;;2.13;1.95;;;35.60;33.60;;;;;;5136075;28;20551;-49
2023/08/14 08:58:38;;;;;;;2.30;2.13;;;34.80;35.40;;;;;;5140323;28;20277;-48
2023/08/14 09:01:09;;;;;;;2.30;2.20;;;34.00;37.00;;;;;;5135654;28;20288;-48
2023/08/14 09:03:41;;;;;;;2.55;2.38;;;33.20;38.50;;;;;;5123940;28;20204;-48
2023/08/14 09:06:12;;;;;;;2.45;2.10;;;32.70;39.10;;;;;;5142982;28;20683;-48
2023/08/14 09:08:43;;;;;;;2.70;2.13;;;32.10;39.80;;;;;;5140332;28;20208;-48
2023/08/14 09:11:13;;;;;;;2.27;1.80;;;31.80;40.70;;;;;;5138220;28;20196;-47
2023/08/14 09:13:45;;;;;;;2.33;2.13;;;31.40;41.10;;;;;;5140699;28;20185;-50
2023/08/14 09:16:16;;;;;;;1.60;1.50;;;31.20;41.10;;;;;;5113221;28;20275;-47
2023/08/14 09:18:47;;;;;;;3.63;1.63;;;31.00;41.30;;;;;;5141786;28;20627;-46
2023/08/14 09:21:18;;;;;;;2.53;1.87;;;30.70;41.80;;;;;;5144960;28;20230;-48
2023/08/14 09:23:50;;;;;;;1.67;1.53;;;30.60;42.20;;;;;;5127206;28;20273;-46
2023/08/14 09:26:21;;;;;;;1.63;1.53;;;30.40;41.40;;;;;;5142394;28;20188;-45
2023/08/14 09:28:52;;;;;;;2.53;2.33;;;30.30;41.50;;;;;;5139482;28;20197;-46
2023/08/14 09:31:23;;;;;;;1.73;1.73;;;30.20;42.50;;;;;;5140032;28;20213;-47
2023/08/14 09:33:55;;;;;;;6.87;2.30;;;30.30;42.80;;;;;;5141004;28;20945;-48
2023/08/14 09:36:34;;;;;;;2.27;1.73;;;30.20;43.00;;;;;;5124280;28;20196;-47
2023/08/14 09:39:05;;;;;;;1.97;1.87;;;29.90;42.60;;;;;;5128896;28;20436;-48
2023/08/14 09:41:37;;;;;;;2.00;1.57;;;29.80;42.90;;;;;;5123775;28;20462;-48
2023/08/14 09:44:08;;;;;;;4.33;2.20;;;29.80;43.20;;;;;;5124742;28;20561;-48
2023/08/14 09:46:40;;;;;;;6.97;2.33;;;29.70;43.10;;;;;;5144126;28;20484;-47
2023/08/14 09:49:11;;;;;;;2.93;1.67;;;29.40;43.80;;;;;;5129193;28;20186;-47
2023/08/14 09:51:42;;;;;;;2.80;2.60;;;29.30;44.40;;;;;;5145981;28;21032;-47
2023/08/14 09:54:12;;;;;;;2.00;1.80;;;29.40;44.80;;;;;;5128520;28;20228;-47
2023/08/14 09:56:44;;;;;;;2.47;1.37;;;29.50;43.40;;;;;;5142584;28;20181;-47
2023/08/14 09:59:14;;;;;;;2.33;1.30;;;29.50;43.40;;;;;;5130942;28;20201;-47
2023/08/14 10:01:49;;;;;;;4.73;1.30;;;29.40;43.70;;;;;;5120369;28;20472;-46
2023/08/14 10:04:22;;;;;;;3.27;2.00;;;29.40;43.00;;;;;;5144634;28;20184;-47
2023/08/14 10:06:53;;;;;;;1.43;1.40;;;29.20;43.30;;;;;;5138606;28;20436;-47
2023/08/14 10:09:28;;;;;;;2.27;1.67;;;29.10;43.60;;;;;;5141679;28;20535;-48
2023/08/14 10:12:05;;;;;;;1.50;1.50;;;29.10;43.90;;;;;;5145583;28;20216;-46
2023/08/14 10:14:37;;;;;;;3.13;1.53;;;29.20;44.20;;;;;;5138408;28;20491;-48
2023/08/14 10:17:18;;;;;;;2.00;1.90;;;29.10;44.40;;;;;;5128489;28;20448;-48
2023/08/14 10:19:53;;;;;;;2.30;2.00;;;29.20;44.40;;;;;;5134458;28;20523;-47
2023/08/14 10:22:24;;;;;;;1.63;1.53;;;29.30;44.60;;;;;;5137996;28;21152;-48
2023/08/14 10:24:55;;;;;;;2.57;1.83;;;29.40;44.70;;;;;;5138012;28;21167;-47
2023/08/14 10:27:27;;;;;;;3.13;1.50;;;29.50;42.70;;;;;;5145471;28;20905;-49
2023/08/14 10:29:59;;;;;;;3.13;1.67;;;29.30;43.50;;;;;;5140845;28;20449;-50
2023/08/14 10:32:30;;;;;;;2.07;1.63;;;29.30;44.00;;;;;;5137185;28;20539;-48
2023/08/14 10:35:02;;;;;;;1.97;1.87;;;29.30;44.00;;;;;;5131698;28;20452;-47
2023/08/14 10:37:49;;;;;;;1.83;1.73;;;29.40;44.50;;;;;;5130530;28;20429;-51
2023/08/14 10:40:21;;;;;;;10.13;2.20;;;29.50;44.40;;;;;;5120056;28;20432;-50
2023/08/14 10:42:54;;;;;;;2.63;2.43;;;29.50;44.30;;;;;;5122024;28;20440;-47
2023/08/14 10:45:26;;;;;;;1.43;1.40;;;29.60;44.20;;;;;;5123041;28;20782;-49
2023/08/14 10:48:08;;;;;;;2.10;1.90;;;29.70;43.70;;;;;;5130166;28;20436;-49
2023/08/14 10:50:39;;;;;;;1.40;1.20;;;29.60;44.20;;;;;;5124983;28;20543;-48
2023/08/14 10:53:10;;;;;;;2.73;1.50;;;29.50;44.00;;;;;;5142522;28;20524;-47
2023/08/14 10:55:46;;;;;;;1.63;1.63;;;29.40;44.20;;;;;;5129896;28;20526;-46
2023/08/14 10:58:35;;;;;;;3.60;1.17;;;29.40;44.40;;;;;;5122352;28;20441;-47
2023/08/14 11:01:08;;;;;;;1.53;1.43;;;29.30;44.60;;;;;;5141293;28;20811;-48
2023/08/14 11:04:04;;;;;;;1.80;1.70;;;29.30;44.50;;;;;;5127565;28;20440;-49
2023/08/14 11:06:58;;;;;;;1.87;1.77;;;29.20;44.70;;;;;;5134642;28;20544;-47
2023/08/14 11:09:32;;;;;;;1.57;1.33;;;29.30;45.40;;;;;;5126203;28;20448;-48
2023/08/14 11:12:05;;;;;;;2.93;1.50;;;29.20;45.00;;;;;;5128029;28;20452;-48
2023/08/14 11:14:38;;;;;;;1.87;1.77;;;29.30;44.80;;;;;;5143395;28;20472;-46
2023/08/14 11:17:10;;;;;;;2.73;2.20;;;29.30;44.40;;;;;;5128952;28;20441;-47
2023/08/14 11:19:40;;;;;;;1.80;1.43;;;29.40;44.70;;;;;;5137967;28;20441;-47
2023/08/14 11:22:11;;;;;;;2.30;1.40;;;29.20;44.10;;;;;;5124889;28;20458;-47
2023/08/14 11:24:42;;;;;;;1.40;1.33;;;29.00;44.20;;;;;;5141586;28;20590;-47
2023/08/14 11:27:13;;;;;;;1.40;1.40;;;28.90;44.90;;;;;;5142552;28;20201;-47
2023/08/14 11:29:48;;;;;;;1.80;1.70;;;28.90;45.50;;;;;;5145923;28;20178;-46
2023/08/14 11:32:19;;;;;;;3.23;1.90;;;29.00;45.00;;;;;;5126240;28;20560;-48
2023/08/14 11:34:51;;;;;;;4.70;2.27;;;29.00;45.60;;;;;;5136012;28;20502;-47
2023/08/14 11:37:22;;;;;;;1.40;1.40;;;29.20;46.20;;;;;;5142946;28;20193;-46
2023/08/14 11:39:52;;;;;;;5.40;3.10;;;29.20;46.00;;;;;;5145836;28;20811;-47
2023/08/14 11:42:23;;;;;;;1.60;1.50;;;29.50;45.90;;;;;;5140200;28;20200;-47
2023/08/14 11:44:54;;;;;;;6.37;1.70;;;29.50;45.90;;;;;;5135092;28;20602;-47
2023/08/14 11:47:24;;;;;;;4.63;1.50;;;29.60;45.80;;;;;;5140067;28;20685;-47
2023/08/14 11:49:56;;;;;;;1.50;1.47;;;29.60;45.40;;;;;;5140250;28;20200;-48
2023/08/14 11:52:27;;;;;;;2.23;1.43;;;29.70;45.40;;;;;;5141113;28;20217;-47
2023/08/14 11:54:58;;;;;;;1.53;1.53;;;29.70;45.10;;;;;;5131031;28;20484;-47
2023/08/14 11:57:31;;;;;;;3.30;1.97;;;29.70;45.20;;;;;;5123921;28;21043;-47
2023/08/14 12:00:13;;;;;;;2.37;1.73;;;29.70;45.50;;;;;;5118094;28;20432;-48
2023/08/14 12:02:44;;;;;;;1.60;1.50;;;29.70;45.90;;;;;;5142471;28;20451;-46
2023/08/14 12:05:19;;;;;;;1.70;1.60;;;29.70;45.40;;;;;;5133860;28;20441;-47
2023/08/14 12:07:50;;;;;;;1.40;1.33;;;29.70;45.40;;;;;;5134231;28;20243;-47
2023/08/14 12:10:20;;;;;;;2.77;1.80;;;29.80;45.60;;;;;;5132831;28;20429;-48
2023/08/14 12:12:51;;;;;;;4.43;2.20;;;30.00;45.90;;;;;;5139193;28;20297;-49
2023/08/14 12:15:22;;;;;;;5.83;2.20;;;30.00;45.10;;;;;;5138260;28;20292;-46
2023/08/14 12:17:53;;;;;;;1.90;1.80;;;30.00;45.20;;;;;;5112118;28;20283;-49
2023/08/14 12:20:23;;;;;;;1.80;1.70;;;30.00;45.30;;;;;;5137722;28;20564;-47
2023/08/14 12:23:11;;;;;;;3.53;1.80;;;30.00;45.70;;;;;;5137671;28;20184;-46
2023/08/14 12:25:42;;;;;;;3.10;2.90;;;30.00;45.60;;;;;;5144406;28;20177;-47
2023/08/14 12:28:12;;;;;;;4.10;3.00;;;29.90;46.50;;;;;;5140185;28;20449;-49
2023/08/14 12:30:44;;;;;;;2.13;1.83;;;29.90;46.30;;;;;;5130655;28;20204;-47
2023/08/14 12:33:16;;;;;;;2.20;2.10;;;29.70;46.10;;;;;;5141984;28;20217;-47
2023/08/14 12:35:47;;;;;;;2.47;2.30;;;29.70;46.50;;;;;;5130126;28;21006;-47
2023/08/14 12:38:18;;;;;;;2.13;2.03;;;29.70;47.00;;;;;;5144276;28;20436;-46
2023/08/14 12:40:49;;;;;;;3.23;1.90;;;29.70;46.40;;;;;;5123243;28;20296;-47
2023/08/14 12:43:19;;;;;;;2.60;1.90;;;29.60;46.30;;;;;;5145266;28;20189;-46
2023/08/14 12:45:50;;;;;;;3.37;2.27;;;29.60;46.60;;;;;;5140505;28;20192;-46
2023/08/14 12:48:21;;;;;;;2.60;1.93;;;29.50;46.80;;;;;;5138179;28;20586;-46
2023/08/14 12:50:51;;;;;;;2.40;2.20;;;29.50;46.90;;;;;;5122359;28;20209;-46
2023/08/14 12:53:22;;;;;;;2.20;1.77;;;29.40;47.70;;;;;;5142924;28;20196;-48
2023/08/14 12:55:53;;;;;;;4.37;2.10;;;29.40;47.20;;;;;;5129695;28;20209;-46
2023/08/14 12:58:25;;;;;;;5.40;1.80;;;29.50;47.30;;;;;;5135729;28;20295;-47
2023/08/14 13:00:56;;;;;;;1.67;1.67;;;29.50;47.10;;;;;;5144604;28;20216;-48
2023/08/14 13:03:26;;;;;;;2.60;2.40;;;29.50;47.00;;;;;;5124452;28;20440;-46
2023/08/14 13:05:58;;;;;;;2.00;1.90;;;29.60;47.30;;;;;;5138753;28;20549;-48
2023/08/14 13:08:29;;;;;;;2.07;1.80;;;29.90;46.70;;;;;;5147620;28;20185;-48
2023/08/14 13:11:00;;;;;;;3.90;1.60;;;30.10;46.10;;;;;;5141174;28;20464;-47